Time;durP1;ratioP1;P1;durP2;ratioP2;P2;SDS_P1;SDS_P2;PMS_P1;PMS_P2;Temp;Humidity;BMP_temperature;BMP_pressure;BME280_temperature;BME280_humidity;BME280_pressure;Samples;Min_cycle;Max_cycle;Signal;HPM_P1;HPM_P2
2021/05/11 00:01:05;;;;;;;1.45;1.33;;;;;;;8.85;66.32;93795.75;5049396;28;20029;-65
2021/05/11 00:03:30;;;;;;;0.73;0.68;;;;;;;8.71;66.45;93799.75;5049226;28;20028;-65
2021/05/11 00:05:56;;;;;;;0.95;0.90;;;;;;;8.82;66.10;93801.53;5049329;28;20025;-64
2021/05/11 00:08:21;;;;;;;3.78;2.15;;;;;;;8.77;66.13;93799.66;5047996;27;20077;-64
2021/05/11 00:10:47;;;;;;;0.52;0.52;;;;;;;8.69;66.51;93799.53;5079959;27;20060;-64
2021/05/11 00:13:12;;;;;;;1.08;0.90;;;;;;;8.69;66.67;93793.28;5153884;27;20026;-64
2021/05/11 00:15:38;;;;;;;0.73;0.63;;;;;;;8.48;67.37;93795.91;5153863;27;20015;-64
2021/05/11 00:18:03;;;;;;;0.50;0.50;;;;;;;8.61;66.32;93795.94;5153826;27;20014;-64
2021/05/11 00:20:29;;;;;;;0.93;0.73;;;;;;;8.42;67.24;93792.50;5153607;27;20038;-64
2021/05/11 00:22:54;;;;;;;1.20;1.00;;;;;;;8.30;67.96;93786.44;5153878;27;20480;-64
2021/05/11 00:25:19;;;;;;;1.13;1.02;;;;;;;8.50;66.52;93790.63;5153925;27;20015;-64
2021/05/11 00:27:45;;;;;;;1.40;1.30;;;;;;;8.43;66.26;93787.72;5153553;27;20460;-64
2021/05/11 00:30:12;;;;;;;5.38;1.23;;;;;;;8.47;66.50;93788.19;5093628;27;20025;-65
2021/05/11 00:32:37;;;;;;;0.95;0.90;;;;;;;8.40;66.24;93782.03;5048494;28;20017;-65
2021/05/11 00:35:03;;;;;;;1.02;0.85;;;;;;;8.37;66.70;93771.34;5048821;28;20032;-65
2021/05/11 00:37:29;;;;;;;1.20;0.95;;;;;;;8.28;67.44;93774.50;5048846;28;20073;-64
2021/05/11 00:39:54;;;;;;;0.85;0.85;;;;;;;8.23;67.49;93776.03;5048714;28;20029;-64
2021/05/11 00:42:20;;;;;;;0.73;0.73;;;;;;;8.23;67.46;93775.28;5048713;28;20516;-65
2021/05/11 00:44:45;;;;;;;1.40;1.30;;;;;;;8.23;67.46;93778.78;5048660;28;20409;-65
2021/05/11 00:47:11;;;;;;;1.10;1.00;;;;;;;8.24;67.51;93769.28;5048653;28;20624;-65
2021/05/11 00:49:36;;;;;;;0.95;0.95;;;;;;;8.24;66.40;93769.28;5048335;28;20021;-65
2021/05/11 00:52:04;;;;;;;1.83;1.33;;;;;;;8.23;66.46;93767.03;5047570;28;20532;-64
2021/05/11 00:54:30;;;;;;;0.68;0.68;;;;;;;8.15;67.19;93772.41;5048571;28;20029;-65
2021/05/11 00:56:56;;;;;;;1.02;0.95;;;;;;;7.98;66.64;93771.94;5048216;28;20047;-65
2021/05/11 00:59:26;;;;;;;1.40;0.90;;;;;;;7.78;67.29;93772.50;5048467;28;20029;-65
2021/05/11 01:01:58;;;;;;;0.82;0.82;;;;;;;7.89;67.20;93766.84;5048509;27;20037;-65
2021/05/11 01:04:25;;;;;;;0.93;0.85;;;;;;;7.68;67.64;93767.91;5048327;28;20153;-65
2021/05/11 01:06:51;;;;;;;2.53;2.33;;;;;;;7.57;68.48;93761.34;5048044;27;20108;-65
2021/05/11 01:09:17;;;;;;;1.40;1.30;;;;;;;7.78;67.52;93760.75;5048263;28;20029;-65
2021/05/11 01:11:43;;;;;;;1.13;1.02;;;;;;;7.63;67.25;93748.25;5119448;27;20034;-65
2021/05/11 01:14:08;;;;;;;2.05;1.40;;;;;;;7.55;67.92;93736.38;5152967;27;20018;-65
2021/05/11 01:16:34;;;;;;;2.13;1.05;;;;;;;7.42;68.73;93741.81;5152604;27;20033;-65
2021/05/11 01:19:13;;;;;;;1.13;1.00;;;;;;;7.45;68.90;93749.00;5152512;27;20081;-65
2021/05/11 01:22:16;;;;;;;;;;;;;;;7.48;68.80;93749.97;5152789;27;20110;-65
2021/05/11 01:24:34;;;;;;;0.70;0.70;;;;;;;7.51;68.46;93733.19;5152027;27;19911;-65
2021/05/11 01:48:31;;;;;;;3.00;0.85;;;;;;;7.07;68.55;93722.09;5047848;28;20070;-65
2021/05/11 02:23:03;;;;;;;1.15;1.08;;;;;;;6.37;69.14;93712.19;5076640;27;20535;-65
2021/05/11 02:25:29;;;;;;;1.60;1.35;;;;;;;6.52;68.52;93715.28;5047029;28;20112;-65
2021/05/11 02:27:55;;;;;;;1.83;1.73;;;;;;;6.60;68.29;93703.22;5047190;28;20073;-65
2021/05/11 02:30:20;;;;;;;1.83;1.23;;;;;;;6.55;68.14;93700.53;5047270;28;20025;-65
2021/05/11 02:32:46;;;;;;;1.60;1.35;;;;;;;6.39;68.53;93693.25;5049904;28;20021;-65
2021/05/11 02:35:13;;;;;;;1.98;1.55;;;;;;;6.40;68.81;93702.94;5050684;28;20059;-65
2021/05/11 02:37:39;;;;;;;1.38;1.13;;;;;;;6.46;69.36;93700.88;5050707;28;20021;-65
2021/05/11 02:40:07;;;;;;;1.95;1.85;;;;;;;6.32;68.83;93700.03;5050587;28;20086;-65
2021/05/11 02:42:34;;;;;;;2.35;2.08;;;;;;;6.22;69.10;93706.38;5050535;28;20025;-65
2021/05/11 02:45:00;;;;;;;15.23;3.20;;;;;;;6.21;69.02;93702.16;5050335;28;20033;-65
2021/05/11 02:47:26;;;;;;;3.22;2.83;;;;;;;6.29;68.61;93701.06;5050520;28;20032;-65
2021/05/11 02:49:51;;;;;;;3.75;3.45;;;;;;;6.30;68.36;93702.56;5050409;28;20031;-65
2021/05/11 02:52:17;;;;;;;4.72;3.40;;;;;;;6.35;68.40;93704.47;5050075;28;20061;-65
2021/05/11 02:54:43;;;;;;;3.33;3.03;;;;;;;6.40;68.23;93695.47;5050502;28;20021;-65
2021/05/11 02:57:08;;;;;;;2.15;1.95;;;;;;;5.96;68.98;93701.38;5050366;28;20489;-65
2021/05/11 02:59:34;;;;;;;2.08;1.88;;;;;;;5.74;69.91;93690.63;5050320;28;20035;-65
2021/05/11 03:02:00;;;;;;;1.80;1.70;;;;;;;5.72;70.21;93698.59;5049706;28;20024;-65
2021/05/11 03:04:25;;;;;;;2.70;1.75;;;;;;;5.76;70.45;93693.59;5049838;28;20017;-65
2021/05/11 03:06:56;;;;;;;3.20;2.80;;;;;;;5.66;70.51;93687.69;5049938;27;20052;-65
2021/05/11 03:09:22;;;;;;;2.25;2.03;;;;;;;5.76;70.36;93697.06;5050239;28;20036;-65
2021/05/11 03:11:48;;;;;;;2.17;1.73;;;;;;;5.82;70.24;93691.53;5125302;27;20015;-65
2021/05/11 03:14:13;;;;;;;3.13;2.75;;;;;;;5.72;70.28;93693.84;5155108;27;20026;-65
2021/05/11 03:16:39;;;;;;;2.33;2.13;;;;;;;5.61;70.61;93690.50;5154990;27;20039;-64
2021/05/11 03:19:04;;;;;;;3.13;1.60;;;;;;;5.57;70.53;93698.97;5088803;27;20041;-65
2021/05/11 03:21:30;;;;;;;1.90;1.15;;;;;;;5.48;70.92;93691.06;5050009;28;20017;-64
2021/05/11 03:23:55;;;;;;;2.78;1.80;;;;;;;5.50;70.58;93696.06;5049865;28;20027;-65
2021/05/11 03:26:20;;;;;;;1.10;1.00;;;;;;;5.67;69.97;93697.41;5049679;28;20153;-64
2021/05/11 03:28:46;;;;;;;2.78;2.50;;;;;;;5.74;69.68;93696.81;5049567;28;20024;-65
2021/05/11 03:31:11;;;;;;;2.45;2.25;;;;;;;5.62;70.48;93694.69;5049861;28;20021;-64
2021/05/11 03:33:37;;;;;;;3.38;2.38;;;;;;;5.66;70.44;93698.66;5049770;28;20013;-64
2021/05/11 03:36:02;;;;;;;2.15;1.98;;;;;;;5.68;68.87;93696.13;5049491;28;20705;-64
2021/05/11 03:38:28;;;;;;;4.88;3.72;;;;;;;5.64;68.96;93697.66;5049384;28;20021;-65
2021/05/11 03:40:55;;;;;;;4.03;3.33;;;;;;;5.82;69.33;93703.25;5049678;28;20081;-64
2021/05/11 03:43:25;;;;;;;4.00;2.53;;;;;;;5.78;69.80;93700.03;5048586;28;20088;-64
2021/05/11 03:45:57;;;;;;;10.15;4.35;;;;;;;5.74;69.44;93702.31;5049754;28;20033;-64
2021/05/11 03:48:23;;;;;;;3.33;2.00;;;;;;;5.79;69.60;93709.00;5049571;28;20021;-65
2021/05/11 03:50:48;;;;;;;1.90;1.50;;;;;;;5.89;69.23;93704.72;5049147;28;20021;-64
2021/05/11 03:53:14;;;;;;;1.45;1.35;;;;;;;5.71;68.37;93702.59;5049191;28;20028;-64
2021/05/11 03:55:39;;;;;;;2.17;1.92;;;;;;;5.96;67.55;93701.38;5049232;28;20021;-64
2021/05/11 03:58:05;;;;;;;2.13;1.90;;;;;;;6.03;67.05;93706.31;5049098;28;20130;-64
2021/05/11 04:00:30;;;;;;;2.35;2.17;;;;;;;6.03;67.44;93707.06;5049390;28;20029;-64
2021/05/11 04:02:55;;;;;;;3.28;1.63;;;;;;;6.11;67.81;93697.00;5049270;28;20049;-64
2021/05/11 04:05:21;;;;;;;3.40;2.42;;;;;;;6.01;68.68;93698.63;5049018;28;20485;-64
2021/05/11 04:07:54;;;;;;;16.35;2.80;;;;;;;6.06;69.07;93706.03;5047517;27;20049;-64
2021/05/11 04:10:29;;;;;;;3.33;2.95;;;;;;;6.13;68.87;93697.22;5060097;27;20029;-64
2021/05/11 04:18:03;;;;;;;3.33;3.08;;;;;;;6.70;67.45;93703.59;5049129;28;20039;-64
2021/05/11 04:20:29;;;;;;;2.35;2.15;;;;;;;7.28;65.48;93701.81;5048619;28;20048;-64
2021/05/11 04:22:54;;;;;;;2.47;2.28;;;;;;;7.86;64.36;93690.19;5048692;28;20065;-64
2021/05/11 04:25:20;;;;;;;9.52;2.33;;;;;;;8.19;63.60;93697.84;5048707;28;20024;-64
2021/05/11 04:27:46;;;;;;;5.13;3.33;;;;;;;8.72;62.51;93696.63;5048943;28;20035;-64
2021/05/11 04:30:12;;;;;;;2.58;2.00;;;;;;;9.35;61.29;93695.56;5048914;28;20047;-64
2021/05/11 04:32:37;;;;;;;1.50;1.23;;;;;;;9.77;59.10;93677.78;5048609;28;20021;-64
2021/05/11 04:35:03;;;;;;;16.65;1.52;;;;;;;10.02;58.70;93680.19;5048880;28;20046;-64
2021/05/11 04:37:29;;;;;;;1.33;1.23;;;;;;;10.10;59.16;93687.25;5048795;28;20516;-64
2021/05/11 04:39:54;;;;;;;2.17;1.20;;;;;;;9.94;59.68;93680.13;5048500;28;20017;-64
2021/05/11 04:42:20;;;;;;;1.25;0.75;;;;;;;9.90;60.56;93688.00;5048050;28;20035;-64
2021/05/11 04:44:45;;;;;;;2.53;0.82;;;;;;;9.97;60.44;93684.56;5048641;28;20027;-64
2021/05/11 04:47:21;;;;;;;1.00;1.00;;;;;;;10.38;60.81;93681.03;5048662;28;20493;-64
2021/05/11 04:49:46;;;;;;;2.10;1.35;;;;;;;10.95;59.03;93676.22;5048690;28;20028;-63
2021/05/11 04:52:11;;;;;;;2.85;1.52;;;;;;;11.13;58.83;93681.44;5048344;28;20094;-63
2021/05/11 04:54:37;;;;;;;2.15;1.77;;;;;;;11.23;58.67;93670.63;5047205;28;20017;-65
2021/05/11 04:57:03;;;;;;;1.55;1.45;;;;;;;11.17;57.97;93678.34;5048286;28;20077;-63
2021/05/11 04:59:29;;;;;;;6.85;2.22;;;;;;;11.30;58.79;93675.44;5048145;28;20029;-62
2021/05/11 05:01:56;;;;;;;1.23;1.13;;;;;;;11.61;57.57;93673.50;5048448;28;20013;-63
2021/05/11 05:04:21;;;;;;;1.45;1.35;;;;;;;11.75;57.66;93667.28;5048397;28;20025;-63
2021/05/11 05:06:47;;;;;;;1.27;1.17;;;;;;;11.80;57.17;93668.38;5047735;28;20020;-63
2021/05/11 05:09:12;;;;;;;3.00;1.98;;;;;;;11.80;56.97;93669.09;5048071;28;20029;-63
2021/05/11 05:11:41;;;;;;;1.85;1.27;;;;;;;11.77;54.82;93663.94;5114532;27;20023;-63
2021/05/11 05:14:10;;;;;;;3.08;1.55;;;;;;;11.66;56.08;93664.25;5153025;27;20011;-62
2021/05/11 05:16:36;;;;;;;11.13;1.48;;;;;;;11.67;55.06;93658.22;5153035;27;20023;-62
2021/05/11 05:19:03;;;;;;;1.13;1.10;;;;;;;11.75;57.00;93669.28;5152691;27;20054;-62
2021/05/11 05:21:28;;;;;;;1.38;1.27;;;;;;;11.93;56.46;93668.22;5152653;27;20019;-63
2021/05/11 05:24:02;;;;;;;1.33;1.08;;;;;;;12.54;54.91;93658.56;5152796;27;20048;-63
2021/05/11 05:26:29;;;;;;;0.93;0.90;;;;;;;12.62;54.08;93650.25;5152508;27;20034;-63
2021/05/11 05:28:56;;;;;;;1.10;1.05;;;;;;;12.98;53.23;93653.47;5152445;27;20495;-63
2021/05/11 05:31:22;;;;;;;1.08;0.95;;;;;;;13.61;51.33;93662.47;5152357;27;20464;-62
2021/05/11 05:33:47;;;;;;;0.65;0.65;;;;;;;14.01;51.19;93662.41;5152682;27;20061;-63
2021/05/11 05:36:13;;;;;;;1.42;1.10;;;;;;;14.50;49.21;93658.88;5152623;27;20018;-63
2021/05/11 05:38:41;;;;;;;1.30;1.20;;;;;;;14.92;48.92;93656.81;5152569;27;20023;-63
2021/05/11 05:41:12;;;;;;;1.52;1.20;;;;;;;15.17;49.16;93660.97;5152213;27;20022;-61
2021/05/11 05:43:37;;;;;;;0.60;0.55;;;;;;;15.25;45.20;93655.31;5151048;27;20027;-62
2021/05/11 05:46:03;;;;;;;0.65;0.65;;;;;;;15.17;44.58;93649.09;5152260;27;20026;-63
2021/05/11 05:48:28;;;;;;;0.73;0.70;;;;;;;15.10;44.84;93653.44;5152167;27;20023;-63
2021/05/11 05:50:57;;;;;;;2.58;1.20;;;;;;;15.25;47.50;93651.78;5152135;27;20079;-62
2021/05/11 05:53:26;;;;;;;0.82;0.82;;;;;;;15.23;44.94;93651.63;5152492;27;20029;-63
2021/05/11 05:55:51;;;;;;;0.85;0.85;;;;;;;15.15;46.19;93654.50;5152104;27;20052;-63
2021/05/11 05:58:17;;;;;;;0.70;0.70;;;;;;;14.91;47.24;93647.00;5152403;27;20019;-61
2021/05/11 06:00:42;;;;;;;0.80;0.70;;;;;;;14.79;46.44;93657.84;5152348;27;20052;-62
2021/05/11 06:03:20;;;;;;;0.85;0.80;;;;;;;14.51;47.56;93649.97;5152255;27;20014;-62
2021/05/11 06:05:45;;;;;;;1.02;0.82;;;;;;;14.44;47.29;93640.41;5151426;27;20076;-63
2021/05/11 06:08:11;;;;;;;1.92;0.90;;;;;;;14.61;49.47;93648.03;5067414;27;20021;-62
2021/05/11 06:10:36;;;;;;;6.88;0.93;;;;;;;14.73;46.47;93642.72;5070421;27;20025;-63
2021/05/11 06:13:10;;;;;;;0.70;0.70;;;;;;;14.74;47.22;93650.50;5151908;27;20399;-62
2021/05/11 06:18:20;;;;;;;2.00;1.50;;;;;;;14.49;47.74;93644.25;5151861;27;20034;-61
2021/05/11 06:20:45;;;;;;;1.27;0.85;;;;;;;14.48;47.79;93640.00;5151216;27;20038;-62
2021/05/11 06:23:11;;;;;;;1.17;1.02;;;;;;;14.36;47.42;93630.66;5151792;27;20022;-63
2021/05/11 06:25:38;;;;;;;0.95;0.90;;;;;;;14.51;47.62;93638.84;5151764;27;20054;-62
2021/05/11 06:28:04;;;;;;;0.88;0.88;;;;;;;14.84;46.17;93631.13;5151778;27;20087;-61
2021/05/11 06:30:30;;;;;;;1.88;0.95;;;;;;;14.97;47.81;93628.75;5151938;27;20011;-62
2021/05/11 06:32:55;;;;;;;1.50;0.98;;;;;;;15.42;45.06;93621.88;5151673;27;20106;-63
2021/05/11 06:35:24;;;;;;;4.07;1.27;;;;;;;15.77;47.05;93625.34;5151736;27;20023;-62
2021/05/11 06:37:58;;;;;;;0.60;0.60;;;;;;;16.24;42.60;93613.66;5151641;27;20495;-63
2021/05/11 06:40:24;;;;;;;1.50;1.40;;;;;;;16.83;41.94;93613.19;5151965;27;20526;-62
2021/05/11 06:42:50;;;;;;;1.02;0.88;;;;;;;17.46;41.35;93615.69;5151804;27;20103;-63
2021/05/11 06:52:38;;;;;;;0.80;0.80;;;;;;;17.27;40.29;93608.06;5151505;27;20056;-63
2021/05/11 06:53:14;;;;;;;1.20;1.13;;;;;;;17.18;39.71;93616.44;5151371;27;20023;-62
2021/05/11 06:55:42;;;;;;;1.45;1.20;;;;;;;17.15;41.35;93596.03;5151744;27;20424;-61
2021/05/11 06:58:09;;;;;;;1.20;1.10;;;;;;;17.97;40.90;93606.78;5151454;27;20029;-61
2021/05/11 07:00:34;;;;;;;2.47;1.58;;;;;;;18.94;38.81;93604.94;5151462;27;20521;-62
2021/05/11 07:03:00;;;;;;;1.05;0.90;;;;;;;19.77;37.56;93596.25;5151323;27;20027;-62
2021/05/11 07:05:29;;;;;;;0.70;0.70;;;;;;;20.34;33.93;93601.22;5151713;27;20026;-62
2021/05/11 07:07:59;;;;;;;;;;;;;;;20.47;35.82;93594.25;5078707;27;20036;-62
2021/05/11 07:10:30;;;;;;;1.13;0.98;;;;;;;21.34;34.96;93591.63;5046362;28;19929;-62
2021/05/11 07:13:10;;;;;;;1.05;0.85;;;;;;;22.57;32.26;93587.81;5046730;28;20133;-62
2021/05/11 07:15:36;;;;;;;1.15;0.85;;;;;;;24.14;29.71;93592.81;5046715;28;20032;-62
2021/05/11 07:18:06;;;;;;;1.63;0.85;;;;;;;25.93;28.14;93582.84;5046900;28;20025;-62
2021/05/11 07:20:31;;;;;;;1.13;0.57;;;;;;;27.25;24.90;93592.00;5049627;28;20146;-62
2021/05/11 07:22:57;;;;;;;5.60;0.90;;;;;;;28.40;23.39;93583.03;5049985;28;20054;-63
2021/05/11 07:25:25;;;;;;;1.13;0.80;;;;;;;29.77;22.69;93584.00;5049965;28;20017;-62
2021/05/11 07:30:35;;;;;;;0.82;0.60;;;;;;;30.65;20.15;93585.34;5049706;28;19915;-62
2021/05/11 07:33:00;;;;;;;0.52;0.52;;;;;;;31.32;18.46;93581.72;5049520;28;20025;-62
2021/05/11 07:35:26;;;;;;;0.80;0.60;;;;;;;31.65;18.87;93580.19;5049834;28;20032;-62
2021/05/11 07:37:51;;;;;;;0.63;0.52;;;;;;;32.50;19.51;93578.72;5049797;28;20512;-62
2021/05/11 07:40:17;;;;;;;0.98;0.63;;;;;;;33.28;18.24;93579.75;5049733;28;20021;-62
2021/05/11 07:42:42;;;;;;;0.50;0.50;;;;;;;33.47;18.49;93572.78;5049408;28;20029;-62
2021/05/11 07:45:10;;;;;;;0.70;0.50;;;;;;;33.42;16.76;93573.44;5049306;28;20032;-63
2021/05/11 08:04:14;;;;;;;0.50;0.50;;;;;;;34.33;17.10;93572.88;5048960;28;20081;-62
2021/05/11 08:17:39;;;;;;;0.60;0.60;;;;;;;35.92;14.64;93560.63;5049607;28;20036;-62
2021/05/11 08:20:37;;;;;;;0.22;0.22;;;;;;;35.62;14.29;93567.78;5048802;28;20068;-61
2021/05/11 08:28:24;;;;;;;0.82;0.50;;;;;;;35.23;14.75;93560.47;5048692;28;20056;-62
2021/05/11 08:30:50;;;;;;;0.57;0.45;;;;;;;35.33;14.21;93560.50;5048593;28;20486;-61
2021/05/11 08:33:15;;;;;;;0.60;0.47;;;;;;;35.10;14.87;93559.00;5048889;28;20024;-62
2021/05/11 08:35:41;;;;;;;0.40;0.40;;;;;;;34.30;14.66;93582.16;5048620;28;20037;-62
2021/05/11 08:38:06;;;;;;;0.40;0.40;;;;;;;35.01;15.49;93560.38;5048518;28;20021;-62
2021/05/11 08:40:33;;;;;;;0.38;0.38;;;;;;;35.68;14.67;93559.19;5048779;28;20033;-62
2021/05/11 08:43:02;;;;;;;0.30;0.30;;;;;;;35.71;13.87;93563.47;5048656;28;20398;-62
2021/05/11 08:45:30;;;;;;;0.70;0.50;;;;;;;34.11;14.42;93558.38;5048722;28;20037;-62
2021/05/11 08:47:55;;;;;;;0.93;0.77;;;;;;;33.79;15.42;93563.81;5048806;28;20031;-63
2021/05/11 08:50:36;;;;;;;0.40;0.40;;;;;;;33.93;14.95;93563.22;5048018;28;20028;-63
2021/05/11 09:07:00;;;;;;;0.35;0.35;;;;;;;33.60;15.45;93537.16;5048174;27;20124;-62
2021/05/11 09:26:04;;;;;;;0.40;0.40;;;;;;;34.28;17.70;93536.28;5048151;28;20186;-63
2021/05/11 09:31:03;;;;;;;0.40;0.32;;;;;;;34.83;15.21;93525.84;5046536;28;20040;-63
2021/05/11 09:33:43;;;;;;;0.60;0.60;;;;;;;35.39;14.77;93522.47;5047688;28;20029;-63
2021/05/11 10:48:36;;;;;;;0.73;0.63;;;;;;;34.42;15.62;93504.84;5029619;28;20055;-63
2021/05/11 10:51:28;;;;;;;1.87;0.80;;;;;;;33.37;15.74;93500.41;5026893;28;20034;-63
2021/05/11 10:54:02;;;;;;;0.75;0.70;;;;;;;33.98;15.82;93499.50;5030386;28;20034;-63
2021/05/11 10:56:30;;;;;;;2.63;0.40;;;;;;;34.20;15.88;93502.56;5030256;28;20038;-63
2021/05/11 11:02:13;;;;;;;0.30;0.30;;;;;;;34.22;15.30;93496.09;5030620;28;20070;-63
2021/05/11 11:04:45;;;;;;;3.90;0.63;;;;;;;33.69;15.66;93497.13;5030078;28;20078;-62
2021/05/11 11:07:11;;;;;;;0.95;0.85;;;;;;;33.47;16.51;93474.72;5037315;27;20024;-62
2021/05/11 11:09:38;;;;;;;0.75;0.55;;;;;;;33.42;17.93;93490.41;5049905;28;20067;-63
2021/05/11 11:12:06;;;;;;;1.35;0.60;;;;;;;32.53;15.40;93485.88;5136651;27;20411;-63
2021/05/11 11:14:42;;;;;;;1.57;1.03;;;;;;;31.41;17.80;93485.59;5155118;27;20019;-64
2021/05/11 11:17:13;;;;;;;0.63;0.50;;;;;;;29.86;18.85;93486.03;5155324;27;20326;-65
2021/05/11 11:19:39;;;;;;;0.60;0.57;;;;;;;29.08;20.84;93486.91;5155020;27;20060;-64
2021/05/11 11:24:59;;;;;;;0.63;0.52;;;;;;;29.86;18.86;93480.31;5154944;27;20038;-64
2021/05/11 11:27:29;;;;;;;0.20;0.20;;;;;;;28.75;19.99;93484.59;5153724;27;20030;-63
2021/05/11 11:30:07;;;;;;;0.60;0.60;;;;;;;29.00;19.69;93481.72;5155200;27;20023;-63
2021/05/11 11:32:34;;;;;;;3.60;0.75;;;;;;;28.85;20.79;93485.56;5154798;27;20045;-63
2021/05/11 11:35:00;;;;;;;0.45;0.40;;;;;;;29.06;20.29;93481.16;5155012;27;20053;-63
2021/05/11 11:37:28;;;;;;;1.05;0.88;;;;;;;28.87;20.79;93479.94;5155002;27;20023;-63
2021/05/11 11:39:55;;;;;;;0.52;0.52;;;;;;;28.53;22.26;93471.19;5154596;27;20167;-63
2021/05/11 11:42:23;;;;;;;0.43;0.43;;;;;;;28.30;22.30;93466.31;5154570;27;20027;-63
2021/05/11 11:44:52;;;;;;;1.08;0.60;;;;;;;27.68;21.83;93464.41;5154484;27;20505;-64
2021/05/11 11:47:18;;;;;;;0.45;0.45;;;;;;;27.11;22.95;93481.72;5154784;27;20035;-63
2021/05/11 11:49:48;;;;;;;0.50;0.50;;;;;;;26.92;22.79;93465.50;5060833;27;20425;-64
2021/05/11 11:52:39;;;;;;;1.30;0.60;;;;;;;26.95;23.68;93467.72;5049581;28;20048;-61
2021/05/11 11:55:33;;;;;;;0.38;0.38;;;;;;;26.66;23.24;93461.72;5049604;28;20085;-63
2021/05/11 11:57:57;;;;;;;0.52;0.50;;;;;;;26.58;23.18;93467.09;5048913;28;20077;-62
2021/05/11 12:00:23;;;;;;;0.45;0.45;;;;;;;26.81;23.43;93458.72;5049446;28;20029;-63
2021/05/11 12:03:02;;;;;;;1.05;0.80;;;;;;;26.62;23.66;93462.31;5049076;28;20493;-64
2021/05/11 12:05:32;;;;;;;0.47;0.47;;;;;;;26.80;23.90;93459.41;5048588;28;20033;-63
2021/05/11 12:10:25;;;;;;;0.60;0.60;;;;;;;26.44;25.79;93458.84;5062995;27;20071;-61
2021/05/11 12:12:51;;;;;;;1.25;0.63;;;;;;;26.51;25.06;93437.84;5154184;27;20113;-63
2021/05/11 12:15:21;;;;;;;1.20;0.47;;;;;;;26.42;23.98;93453.13;5153069;27;20510;-65
2021/05/11 12:18:01;;;;;;;0.55;0.52;;;;;;;26.37;24.28;93447.97;5153903;27;20018;-63
2021/05/11 12:20:27;;;;;;;0.40;0.40;;;;;;;26.09;25.10;93428.59;5153754;27;20047;-63
2021/05/11 12:23:09;;;;;;;0.35;0.35;;;;;;;26.31;25.17;93434.31;5153599;27;20396;-63
2021/05/11 12:25:36;;;;;;;0.80;0.60;;;;;;;26.08;23.94;93446.19;5153757;27;20511;-62
2021/05/11 12:28:02;;;;;;;0.88;0.50;;;;;;;25.50;26.35;93439.06;5153637;27;20499;-63
2021/05/11 12:30:46;;;;;;;0.82;0.57;;;;;;;25.69;25.03;93440.47;5153920;27;20029;-62
2021/05/11 12:33:13;;;;;;;0.60;0.60;;;;;;;25.49;26.13;93443.97;5153948;27;20022;-63
2021/05/11 12:35:42;;;;;;;0.93;0.60;;;;;;;25.45;25.09;93437.44;5153849;27;20435;-62
2021/05/11 12:38:27;;;;;;;1.05;0.73;;;;;;;25.25;26.02;93416.88;5153563;27;20015;-61
2021/05/11 12:43:52;;;;;;;0.75;0.43;;;;;;;24.89;26.37;93427.44;5117025;27;20073;-60
2021/05/11 12:46:20;;;;;;;0.70;0.60;;;;;;;25.04;26.78;93420.97;5048728;28;20049;-60
2021/05/11 12:49:00;;;;;;;0.57;0.57;;;;;;;24.97;26.43;93422.09;5048748;28;20032;-60
2021/05/11 12:51:29;;;;;;;0.57;0.57;;;;;;;24.98;26.12;93417.91;5048752;27;20037;-60
2021/05/11 12:53:57;;;;;;;0.57;0.57;;;;;;;24.98;26.94;93423.56;5048696;28;20013;-60
2021/05/11 12:59:39;;;;;;;0.70;0.70;;;;;;;24.71;26.58;93412.56;5048587;28;20036;-63
2021/05/11 13:19:49;;;;;;;1.35;0.70;;;;;;;24.09;29.58;93390.88;5153086;27;20023;-60
2021/05/11 13:20:44;;;;;;;1.73;0.80;;;;;;;24.19;28.80;93391.31;5152434;27;20179;-59
2021/05/11 13:25:52;;;;;;;0.70;0.70;;;;;;;24.08;29.55;93390.16;5153025;27;20101;-60
2021/05/11 13:35:40;;;;;;;0.40;0.40;;;;;;;24.03;28.79;93377.22;5152698;27;20019;-59
2021/05/11 13:38:06;;;;;;;0.50;0.50;;;;;;;24.07;29.45;93383.06;5152740;27;20018;-61
2021/05/11 13:40:32;;;;;;;0.88;0.80;;;;;;;23.77;28.26;93364.06;5132920;27;20083;-59
2021/05/11 13:42:58;;;;;;;0.50;0.50;;;;;;;23.67;28.73;93381.25;5047804;28;20033;-60
2021/05/11 13:45:24;;;;;;;0.47;0.45;;;;;;;23.71;29.01;93378.63;5047606;28;20444;-59
2021/05/11 13:48:03;;;;;;;3.10;0.52;;;;;;;23.62;29.17;93370.44;5047696;28;20056;-59
2021/05/11 13:50:45;;;;;;;0.63;0.63;;;;;;;23.56;29.50;93359.66;5046545;28;20198;-60
2021/05/11 13:53:10;;;;;;;0.68;0.63;;;;;;;23.47;31.07;93357.09;5047459;28;20061;-60
2021/05/11 14:03:39;;;;;;;0.68;0.52;;;;;;;23.46;30.65;93364.81;5047566;28;20061;-58
2021/05/11 14:06:04;;;;;;;0.40;0.40;;;;;;;23.46;31.63;93364.81;5047559;28;20021;-59
2021/05/11 14:08:30;;;;;;;0.50;0.50;;;;;;;23.41;30.69;93354.75;5046986;28;20553;-60
2021/05/11 14:10:55;;;;;;;0.60;0.60;;;;;;;23.38;30.31;93356.00;5047426;28;20025;-60
2021/05/11 14:13:21;;;;;;;0.50;0.50;;;;;;;23.17;30.56;93365.59;5047148;28;20059;-59
2021/05/11 14:15:46;;;;;;;0.70;0.70;;;;;;;23.09;30.59;93362.41;5047240;28;20021;-60
2021/05/11 14:18:12;;;;;;;0.57;0.57;;;;;;;23.10;31.28;93354.69;5047120;28;20032;-59
2021/05/11 14:20:37;;;;;;;1.85;0.60;;;;;;;23.16;30.63;93354.97;5046988;28;20105;-59
2021/05/11 14:23:03;;;;;;;0.38;0.38;;;;;;;23.11;30.22;93354.03;5047009;28;20070;-59
2021/05/11 14:25:28;;;;;;;0.88;0.85;;;;;;;23.17;30.83;93351.50;5047397;28;20039;-60
2021/05/11 14:27:54;;;;;;;0.43;0.43;;;;;;;23.21;29.98;93356.59;5048830;28;20028;-59
2021/05/11 14:30:20;;;;;;;0.57;0.57;;;;;;;23.11;30.30;93358.94;5050953;28;20048;-59
2021/05/11 14:32:45;;;;;;;1.38;0.90;;;;;;;23.08;30.41;93348.97;5050603;28;20116;-59
2021/05/11 14:35:11;;;;;;;3.92;0.65;;;;;;;22.86;30.90;93351.47;5050747;28;20150;-60
2021/05/11 14:37:36;;;;;;;0.85;0.70;;;;;;;22.85;30.58;93347.19;5050563;28;20051;-59
2021/05/11 14:40:03;;;;;;;2.58;0.80;;;;;;;22.73;29.97;93345.88;5050466;28;20069;-59
2021/05/11 14:42:28;;;;;;;1.33;0.55;;;;;;;22.79;31.02;93344.09;5050348;28;20029;-59
2021/05/11 14:44:54;;;;;;;2.05;0.90;;;;;;;22.76;30.47;93339.72;5050560;28;20040;-60
2021/05/11 14:47:20;;;;;;;0.77;0.75;;;;;;;22.77;31.00;93340.44;5050629;28;20025;-59
2021/05/11 14:49:45;;;;;;;0.75;0.55;;;;;;;22.73;30.85;93329.72;5050339;28;20405;-59
2021/05/11 14:52:13;;;;;;;0.90;0.85;;;;;;;22.61;30.32;93340.41;5050258;28;20033;-60
2021/05/11 14:54:39;;;;;;;0.98;0.93;;;;;;;22.55;32.72;93326.75;5050567;28;20077;-60
2021/05/11 14:57:05;;;;;;;0.60;0.60;;;;;;;22.59;31.15;93323.44;5050542;28;20029;-59
2021/05/11 14:59:30;;;;;;;0.75;0.75;;;;;;;22.57;31.27;93334.56;5050411;28;20496;-59
2021/05/11 15:01:56;;;;;;;0.70;0.65;;;;;;;22.60;30.93;93325.63;5050176;28;20025;-58
2021/05/11 15:04:21;;;;;;;0.60;0.60;;;;;;;22.44;31.39;93333.25;5050332;28;20448;-59
2021/05/11 15:06:46;;;;;;;0.57;0.57;;;;;;;22.39;31.31;93330.88;5050049;27;20481;-59
2021/05/11 15:09:12;;;;;;;0.77;0.40;;;;;;;22.36;31.48;93323.69;5050279;28;20036;-59
2021/05/11 15:11:38;;;;;;;5.78;1.35;;;;;;;22.31;32.22;93316.41;5049909;28;20483;-60
2021/05/11 15:14:04;;;;;;;0.50;0.50;;;;;;;22.27;31.67;93325.38;5049853;28;20478;-60
2021/05/11 15:16:35;;;;;;;0.60;0.57;;;;;;;22.38;31.31;93318.91;5049903;28;20029;-60
2021/05/11 15:19:00;;;;;;;2.40;0.90;;;;;;;22.22;32.42;93311.78;5049638;28;20055;-60
2021/05/11 15:21:26;;;;;;;1.60;0.90;;;;;;;22.26;32.41;93314.78;5049879;28;20025;-60
2021/05/11 15:23:51;;;;;;;0.50;0.50;;;;;;;22.33;31.52;93314.44;5049905;28;20031;-60
2021/05/11 15:26:17;;;;;;;2.97;0.80;;;;;;;22.15;31.65;93315.63;5050046;28;20455;-60
2021/05/11 15:28:43;;;;;;;0.60;0.60;;;;;;;22.23;31.79;93318.84;5048819;28;20025;-59
2021/05/11 15:31:09;;;;;;;1.10;0.90;;;;;;;22.19;32.02;93308.13;5049540;28;20616;-60
2021/05/11 15:33:35;;;;;;;0.80;0.80;;;;;;;22.32;31.80;93315.06;5049662;28;20040;-60
2021/05/11 15:36:00;;;;;;;3.17;0.75;;;;;;;22.30;31.38;93318.50;5049478;28;20032;-60
2021/05/11 15:38:29;;;;;;;1.55;0.85;;;;;;;22.28;31.59;93312.78;5048948;28;20032;-60
2021/05/11 15:40:55;;;;;;;2.17;1.15;;;;;;;22.42;32.73;93321.16;5049536;28;20029;-60
2021/05/11 15:43:20;;;;;;;1.30;0.75;;;;;;;22.37;31.50;93313.91;5049322;28;20052;-61
2021/05/11 15:45:46;;;;;;;2.28;0.95;;;;;;;22.20;31.46;93309.56;5049743;28;20036;-60
2021/05/11 15:48:12;;;;;;;1.58;1.02;;;;;;;21.99;32.16;93300.78;5049598;28;20107;-60
2021/05/11 15:50:39;;;;;;;11.88;1.23;;;;;;;21.89;31.82;93301.00;5049350;28;20421;-60
2021/05/11 15:53:13;;;;;;;1.30;1.20;;;;;;;21.79;32.18;93311.69;5048130;28;20569;-60
2021/05/11 15:55:41;;;;;;;1.33;0.85;;;;;;;21.94;32.57;93297.03;5049256;28;20085;-59